createdAt,value
2023-11-15T00:01:30.852Z,99.34
2023-11-15T00:06:32.568Z,99.63
2023-11-15T00:11:35.267Z,98.32
2023-11-15T00:16:37.081Z,99.83
2023-11-15T00:21:38.730Z,100.00
2023-11-15T00:26:40.542Z,100.00
2023-11-15T00:31:42.207Z,100.00
2023-11-15T00:36:44.629Z,100.00
2023-11-15T00:41:46.833Z,100.00
2023-11-15T00:46:48.742Z,99.87
2023-11-15T00:51:50.401Z,100.00
2023-11-15T00:56:52.234Z,100.00
2023-11-15T01:01:59.588Z,100.00
2023-11-15T01:07:01.525Z,100.00
2023-11-15T01:12:08.426Z,99.45
2023-11-15T01:17:11.347Z,97.15
2023-11-15T01:22:13.189Z,99.14
2023-11-15T01:27:14.892Z,96.67
2023-11-15T01:32:16.989Z,98.36
2023-11-15T01:37:18.678Z,97.46
2023-11-15T01:42:20.352Z,97.06
2023-11-15T01:47:22.078Z,98.04
2023-11-15T01:52:23.834Z,98.16
2023-11-15T01:57:25.741Z,97.88
2023-11-15T02:02:27.483Z,100.00
2023-11-15T02:07:29.417Z,100.00
2023-11-15T02:12:31.579Z,99.85
2023-11-15T02:17:34.145Z,100.00
2023-11-15T02:22:44.028Z,100.00
2023-11-15T02:27:45.850Z,100.00
2023-11-15T02:32:48.582Z,99.74
2023-11-15T02:37:51.468Z,100.00
2023-11-15T02:42:53.447Z,100.00
2023-11-15T02:47:55.209Z,99.89
2023-11-15T02:52:57.203Z,100.00
2023-11-15T02:57:58.882Z,100.00
2023-11-15T03:03:00.765Z,100.00
2023-11-15T03:08:02.601Z,100.00
2023-11-15T03:13:04.780Z,99.58
2023-11-15T03:18:06.526Z,99.60
2023-11-15T03:23:08.356Z,98.91
2023-11-15T03:28:10.074Z,99.49
2023-11-15T03:33:11.793Z,98.82
2023-11-15T03:38:13.525Z,98.62
2023-11-15T03:43:15.260Z,98.48
2023-11-15T03:48:16.940Z,98.06
2023-11-15T03:53:18.642Z,99.43
2023-11-15T03:58:20.260Z,98.63
2023-11-15T04:03:23.476Z,99.05
2023-11-15T04:08:26.520Z,100.00
2023-11-15T04:13:28.231Z,100.00
2023-11-15T04:18:32.072Z,100.00
2023-11-15T04:23:33.816Z,100.00
2023-11-15T04:28:36.559Z,99.36
2023-11-15T04:33:38.191Z,99.85
2023-11-15T04:38:40.025Z,97.79
2023-11-15T04:43:41.771Z,99.59
2023-11-15T04:48:43.579Z,98.39
2023-11-15T04:53:45.418Z,98.91
2023-11-15T04:58:47.070Z,99.22
2023-11-15T05:03:48.943Z,96.76
2023-11-15T05:08:50.778Z,95.10
2023-11-15T05:13:52.538Z,94.88
2023-11-15T05:18:54.209Z,95.35
2023-11-15T05:23:58.243Z,95.83
2023-11-15T05:29:00.046Z,95.36
2023-11-15T05:34:01.652Z,94.65
2023-11-15T05:39:04.417Z,93.85
2023-11-15T05:44:06.317Z,93.13
2023-11-15T05:49:07.954Z,92.87
2023-11-15T05:54:09.604Z,92.78
2023-11-15T05:59:11.284Z,92.26
2023-11-15T06:04:13.005Z,93.04
2023-11-15T06:09:18.392Z,93.75
2023-11-15T06:14:20.033Z,93.48
2023-11-15T06:19:23.224Z,93.80
2023-11-15T06:24:25.169Z,93.97
2023-11-15T06:29:26.838Z,93.45
2023-11-15T06:34:28.551Z,93.49
2023-11-15T06:39:30.234Z,94.55
2023-11-15T06:44:31.946Z,92.32
2023-11-15T06:49:33.762Z,94.14
2023-11-15T06:54:35.483Z,92.84
2023-11-15T06:59:37.127Z,92.95
2023-11-15T07:04:39.189Z,92.80
2023-11-15T07:09:40.889Z,92.15
2023-11-15T07:14:45.762Z,92.29
2023-11-15T07:19:50.507Z,91.08
2023-11-15T07:24:52.914Z,92.38
2023-11-15T07:29:56.709Z,93.12
2023-11-15T07:34:59.738Z,92.19
2023-11-15T07:40:01.650Z,92.54
2023-11-15T07:45:04.068Z,93.44
2023-11-15T07:50:06.564Z,94.79
2023-11-15T07:55:08.580Z,94.99
2023-11-15T08:00:12.533Z,94.31
2023-11-15T08:05:17.072Z,94.87
2023-11-15T08:10:19.293Z,94.72
2023-11-15T08:15:22.078Z,92.88
2023-11-15T08:20:23.744Z,91.40
2023-11-15T08:25:26.478Z,87.60
2023-11-15T08:30:29.211Z,84.21
2023-11-15T08:35:30.890Z,82.70
2023-11-15T08:40:34.983Z,80.78
2023-11-15T08:45:42.516Z,81.13
2023-11-15T08:50:49.099Z,80.70
2023-11-15T08:55:50.839Z,82.10
2023-11-15T09:00:52.665Z,82.69
2023-11-15T09:05:56.588Z,84.39
2023-11-15T09:10:58.327Z,85.48
2023-11-15T09:16:00.596Z,86.73
2023-11-15T09:21:04.400Z,86.60
2023-11-15T09:26:07.566Z,84.62
2023-11-15T09:31:09.210Z,85.38
2023-11-15T09:36:12.058Z,84.10
2023-11-15T09:41:14.142Z,88.82
2023-11-15T09:46:16.171Z,88.51
2023-11-15T09:51:21.954Z,89.23
2023-11-15T09:56:23.628Z,88.08
2023-11-15T10:01:25.810Z,90.23
2023-11-15T10:06:41.056Z,88.39
2023-11-15T10:11:49.195Z,88.40
2023-11-15T10:16:50.869Z,86.56
2023-11-15T10:21:59.589Z,86.59
2023-11-15T10:27:09.956Z,85.71
2023-11-15T10:32:12.309Z,85.26
2023-11-15T10:37:13.943Z,82.97
2023-11-15T10:42:19.039Z,82.82
2023-11-15T10:47:24.153Z,82.45
2023-11-15T10:52:26.491Z,82.89
2023-11-15T10:57:28.950Z,84.11
2023-11-15T11:02:34.835Z,82.61
2023-11-15T11:07:49.387Z,81.63
2023-11-15T11:12:51.063Z,81.36
2023-11-15T11:18:13.593Z,80.92
2023-11-15T11:23:20.758Z,81.30
2023-11-15T11:28:23.162Z,82.17
2023-11-15T11:33:25.431Z,82.25
2023-11-15T11:38:39.587Z,82.93
2023-11-15T11:43:42.942Z,84.92
2023-11-15T11:48:44.857Z,85.73
2023-11-15T11:53:48.379Z,87.11
2023-11-15T11:58:50.311Z,87.94
2023-11-15T12:03:59.618Z,87.53
2023-11-15T12:09:01.411Z,88.04
2023-11-15T12:14:05.251Z,88.95
2023-11-15T12:19:09.460Z,87.86
2023-11-15T12:24:11.618Z,87.91
2023-11-15T12:29:20.592Z,89.00
2023-11-15T12:34:23.168Z,88.35
2023-11-15T12:39:35.752Z,87.73
2023-11-15T12:44:47.315Z,87.79
2023-11-15T12:49:49.035Z,88.10
2023-11-15T12:54:55.128Z,86.56
2023-11-15T12:59:57.539Z,86.07
2023-11-15T13:05:04.323Z,86.70
2023-11-15T13:10:06.593Z,86.48
2023-11-15T13:15:13.975Z,86.51
2023-11-15T13:20:16.901Z,84.55
2023-11-15T13:25:19.664Z,83.97
2023-11-15T13:30:21.393Z,82.60
2023-11-15T13:35:23.038Z,84.74
2023-11-15T13:40:25.429Z,84.87
2023-11-15T13:45:28.395Z,87.39
2023-11-15T13:50:30.348Z,88.29
2023-11-15T13:55:32.144Z,89.61
2023-11-15T14:00:38.214Z,91.65
2023-11-15T14:05:44.610Z,91.35
2023-11-15T14:10:46.378Z,92.66
2023-11-15T14:15:48.237Z,93.27
2023-11-15T14:20:53.201Z,93.47
2023-11-15T14:25:55.146Z,94.38
2023-11-15T14:30:56.854Z,95.56
2023-11-15T14:35:58.522Z,94.79
2023-11-15T14:41:02.065Z,95.69
2023-11-15T14:46:03.920Z,95.32
2023-11-15T14:51:05.831Z,96.65
2023-11-15T14:56:08.802Z,96.56
2023-11-15T15:01:10.546Z,95.98
2023-11-15T15:06:13.749Z,95.87
2023-11-15T15:11:15.469Z,96.45
2023-11-15T15:16:22.053Z,97.25
2023-11-15T15:21:23.729Z,97.25
2023-11-15T15:26:25.462Z,98.45
2023-11-15T15:31:27.108Z,98.47
2023-11-15T15:36:28.808Z,99.23
2023-11-15T15:41:30.534Z,100.00
2023-11-15T15:46:35.002Z,99.96
2023-11-15T15:51:36.673Z,100.00
2023-11-15T15:56:38.348Z,100.00
2023-11-15T16:01:40.594Z,100.00
2023-11-15T16:06:42.409Z,100.00
2023-11-15T16:11:44.325Z,100.00
2023-11-15T16:16:49.438Z,100.00
2023-11-15T16:21:51.344Z,100.00
2023-11-15T16:26:53.328Z,100.00
2023-11-15T16:31:55.056Z,100.00
2023-11-15T16:36:56.680Z,100.00
2023-11-15T16:42:00.279Z,100.00
2023-11-15T16:47:01.974Z,100.00
2023-11-15T16:52:03.917Z,100.00
2023-11-15T16:57:06.511Z,100.00
2023-11-15T17:02:08.507Z,100.00
2023-11-15T17:07:10.181Z,100.00
2023-11-15T17:12:15.756Z,100.00
2023-11-15T17:17:17.459Z,100.00
2023-11-15T17:22:20.887Z,100.00
2023-11-15T17:27:25.203Z,100.00
2023-11-15T17:32:29.222Z,100.00
2023-11-15T17:37:32.058Z,100.00
2023-11-15T17:42:34.213Z,100.00
2023-11-15T17:47:36.008Z,100.00
2023-11-15T17:52:41.450Z,100.00
2023-11-15T17:57:44.929Z,100.00
2023-11-15T18:02:46.956Z,100.00
2023-11-15T18:07:48.849Z,100.00
2023-11-15T18:12:50.564Z,100.00
2023-11-15T18:17:53.540Z,100.00
2023-11-15T18:22:55.512Z,100.00
2023-11-15T18:27:57.199Z,100.00
2023-11-15T18:32:59.143Z,100.00
2023-11-15T18:38:00.776Z,100.00
2023-11-15T18:43:02.452Z,100.00
2023-11-15T18:48:04.346Z,100.00
2023-11-15T18:53:07.870Z,100.00
2023-11-15T18:58:09.891Z,100.00
2023-11-15T19:03:12.518Z,100.00
2023-11-15T19:08:15.447Z,100.00
2023-11-15T19:13:17.687Z,100.00
2023-11-15T19:18:20.385Z,100.00
2023-11-15T19:23:23.453Z,100.00
2023-11-15T19:28:25.218Z,100.00
2023-11-15T19:33:26.998Z,100.00
2023-11-15T19:38:28.708Z,100.00
2023-11-15T19:43:30.304Z,100.00
2023-11-15T19:48:32.051Z,100.00
2023-11-15T19:53:33.680Z,100.00
2023-11-15T19:58:35.562Z,100.00
2023-11-15T20:03:37.333Z,100.00
2023-11-15T20:08:41.896Z,100.00
2023-11-15T20:13:43.896Z,100.00
2023-11-15T20:18:45.641Z,100.00
2023-11-15T20:23:47.908Z,100.00
2023-11-15T20:28:49.614Z,100.00
2023-11-15T20:33:51.669Z,100.00
2023-11-15T20:38:53.416Z,100.00
2023-11-15T20:43:55.125Z,100.00
2023-11-15T20:48:56.826Z,100.00
2023-11-15T20:53:58.571Z,100.00
2023-11-15T20:59:00.212Z,99.82
2023-11-15T21:04:08.618Z,98.34
2023-11-15T21:09:11.263Z,96.67
2023-11-15T21:14:12.939Z,96.42
2023-11-15T21:19:14.608Z,96.33
2023-11-15T21:24:16.409Z,96.75
2023-11-15T21:29:18.170Z,96.59
2023-11-15T21:34:19.829Z,97.10
2023-11-15T21:39:21.516Z,97.07
2023-11-15T21:44:23.172Z,96.80
2023-11-15T21:49:24.823Z,98.18
2023-11-15T21:54:26.552Z,98.40
2023-11-15T21:59:28.215Z,97.45
2023-11-15T22:04:29.912Z,97.04
2023-11-15T22:09:31.949Z,96.13
2023-11-15T22:14:33.842Z,97.75
2023-11-15T22:19:35.605Z,95.41
2023-11-15T22:24:37.205Z,95.21
2023-11-15T22:29:38.871Z,93.65
2023-11-15T22:34:40.469Z,93.84
2023-11-15T22:39:42.145Z,95.34
2023-11-15T22:44:43.836Z,97.03
2023-11-15T22:49:45.471Z,95.73
2023-11-15T22:54:47.789Z,93.82
2023-11-15T22:59:52.250Z,94.61
2023-11-15T23:04:56.329Z,94.21
2023-11-15T23:09:58.333Z,94.99
2023-11-15T23:15:00.115Z,96.82
2023-11-15T23:20:01.772Z,97.51
2023-11-15T23:25:03.556Z,97.06
2023-11-15T23:30:05.843Z,98.78
2023-11-15T23:35:09.102Z,98.02
2023-11-15T23:40:13.255Z,96.79
2023-11-15T23:45:15.605Z,95.40
2023-11-15T23:50:18.396Z,93.89
2023-11-15T23:55:20.842Z,92.46
